Time;durP1;ratioP1;P1;durP2;ratioP2;P2;SDS_P1;SDS_P2;PMS_P1;PMS_P2;Temp;Humidity;BMP_temperature;BMP_pressure;BME280_temperature;BME280_humidity;BME280_pressure;Samples;Min_cycle;Max_cycle;Signal;HPM_P1;HPM_P2
2022/08/05 00:01:23;;;;;;;4.43;4.10;;;22.40;99.90;;;;;;4980806;28;20438;-93
2022/08/05 00:03:51;;;;;;;5.10;4.50;;;22.30;99.90;;;;;;4980498;28;20462;-92
2022/08/05 00:06:19;;;;;;;4.17;3.87;;;;;;;;;;4982469;28;20541;-91
2022/08/05 00:08:46;;;;;;;4.23;3.93;;;;;;;;;;4982305;28;20962;-88
2022/08/05 00:11:14;;;;;;;4.47;4.07;;;22.20;99.90;;;;;;4982028;28;20482;-90
2022/08/05 00:13:43;;;;;;;4.57;3.97;;;22.10;99.90;;;;;;4982825;28;20526;-88
2022/08/05 00:16:12;;;;;;;5.03;4.30;;;22.10;99.90;;;;;;4981890;28;20803;-94
2022/08/05 00:18:39;;;;;;;3.97;3.67;;;;;;;;;;4981457;28;20454;-94
2022/08/05 00:21:08;;;;;;;5.20;4.13;;;22.00;99.90;;;;;;4981167;28;20946;-89
2022/08/05 00:23:35;;;;;;;5.20;4.23;;;;;;;;;;4980656;28;20455;-88
2022/08/05 00:26:02;;;;;;;3.90;3.60;;;;;;;;;;4979761;28;20497;-90
2022/08/05 00:28:29;;;;;;;4.90;4.43;;;;;;;;;;4981308;28;20450;-91
2022/08/05 00:30:56;;;;;;;4.63;4.07;;;;;;;;;;4977471;28;20450;-94
2022/08/05 00:33:23;;;;;;;4.57;4.27;;;;;;;;;;4981511;28;20446;-91
2022/08/05 00:35:51;;;;;;;4.90;4.33;;;;;;;;;;4983320;28;20442;-94
2022/08/05 00:38:19;;;;;;;4.40;3.83;;;21.70;99.90;;;;;;4982032;28;20450;-94
2022/08/05 00:40:47;;;;;;;5.80;3.97;;;23.20;99.90;;;;;;4985670;28;20450;-94
2022/08/05 00:43:14;;;;;;;4.53;4.13;;;;;;;;;;4984601;28;20461;-93
2022/08/05 00:45:42;;;;;;;4.93;4.20;;;;;;;;;;4984345;28;20516;-89
2022/08/05 00:48:10;;;;;;;4.47;4.10;;;21.60;99.90;;;;;;4983723;28;20557;-93
2022/08/05 00:50:38;;;;;;;5.83;4.37;;;;;;;;;;4981560;28;20434;-87
2022/08/05 00:53:05;;;;;;;5.10;4.70;;;;;;;;;;4983243;28;20505;-93
2022/08/05 00:55:33;;;;;;;4.93;4.30;;;21.50;99.90;;;;;;4977078;28;20458;-88
2022/08/05 00:58:00;;;;;;;4.33;3.90;;;;;;;;;;4960606;28;20453;-89
2022/08/05 01:00:28;;;;;;;3.87;3.57;;;;;;;;;;4977379;28;20816;-93
2022/08/05 01:02:55;;;;;;;3.43;3.13;;;;;;;;;;4977071;28;20450;-92
2022/08/05 01:05:22;;;;;;;4.03;2.83;;;;;;;;;;4976741;28;20489;-85
2022/08/05 01:07:49;;;;;;;4.70;3.03;;;;;;;;;;4978064;28;20466;-87
2022/08/05 01:10:17;;;;;;;3.40;3.10;;;;;;;;;;4976329;28;20478;-87
2022/08/05 01:12:52;;;;;;;3.13;2.93;;;23.70;82.40;;;;;;4978259;28;20846;-88
2022/08/05 01:15:23;;;;;;;4.53;3.00;;;23.70;82.50;;;;;;4978671;28;20458;-87
2022/08/05 01:17:53;;;;;;;3.40;2.80;;;23.80;83.90;;;;;;4987571;28;20438;-88
2022/08/05 01:20:34;;;;;;;4.63;3.00;;;23.90;84.10;;;;;;5001398;28;20426;-89
2022/08/05 01:23:11;;;;;;;3.87;3.47;;;23.90;85.70;;;;;;4981181;28;20442;-88
2022/08/05 01:25:49;;;;;;;3.87;3.20;;;23.90;87.20;;;;;;4975328;28;20557;-88
2022/08/05 01:28:27;;;;;;;5.43;3.00;;;23.90;88.60;;;;;;4976494;28;20495;-91
2022/08/05 01:30:59;;;;;;;7.50;3.30;;;23.80;90.10;;;;;;4976243;28;20930;-90
2022/08/05 01:33:35;;;;;;;4.37;3.00;;;23.90;90.20;;;;;;4975863;28;20446;-87
2022/08/05 01:36:08;;;;;;;4.50;3.17;;;23.90;90.50;;;;;;4976230;28;20489;-86
2022/08/05 01:38:37;;;;;;;2.87;2.57;;;23.90;90.80;;;;;;4975443;28;20442;-86
2022/08/05 01:41:07;;;;;;;3.67;3.10;;;23.80;91.20;;;;;;4974739;28;20795;-87
2022/08/05 01:43:36;;;;;;;6.23;3.10;;;;;;;;;;4975770;28;20465;-86
2022/08/05 01:46:03;;;;;;;4.07;3.17;;;;;;;;;;4975743;28;20454;-85
2022/08/05 01:48:33;;;;;;;5.90;2.80;;;23.70;92.30;;;;;;4975675;28;20462;-88
2022/08/05 01:51:02;;;;;;;6.60;3.50;;;23.70;93.10;;;;;;4975668;28;20543;-88
2022/08/05 01:53:29;;;;;;;2.97;2.77;;;;;;;;;;4975157;28;20461;-86
2022/08/05 01:56:00;;;;;;;3.57;2.80;;;23.60;93.60;;;;;;4974278;28;20489;-85
2022/08/05 01:58:28;;;;;;;3.00;2.67;;;23.60;93.40;;;;;;4975505;28;20450;-89
2022/08/05 02:00:59;;;;;;;5.10;3.00;;;23.50;94.30;;;;;;4975479;28;20788;-86
2022/08/05 02:03:32;;;;;;;4.83;3.50;;;23.50;94.80;;;;;;4975069;28;20934;-87
2022/08/05 02:06:00;;;;;;;3.87;2.70;;;23.50;95.00;;;;;;4975274;28;20446;-87
2022/08/05 02:08:28;;;;;;;7.27;4.00;;;;;;;;;;4975557;28;20458;-86
2022/08/05 02:11:01;;;;;;;9.73;3.47;;;23.40;95.40;;;;;;4973839;28;20820;-89
2022/08/05 02:13:38;;;;;;;5.53;3.50;;;23.30;96.00;;;;;;4975549;28;20449;-88
2022/08/05 02:16:14;;;;;;;7.70;3.13;;;23.30;96.30;;;;;;4974383;28;20525;-87
2022/08/05 02:18:46;;;;;;;5.23;3.20;;;23.30;96.60;;;;;;4975349;28;20448;-87
2022/08/05 02:21:16;;;;;;;4.47;2.97;;;23.20;96.70;;;;;;4974774;28;20450;-88
2022/08/05 02:23:48;;;;;;;3.87;3.47;;;23.20;97.10;;;;;;4974094;28;20831;-86
2022/08/05 02:26:20;;;;;;;3.83;3.40;;;23.20;97.00;;;;;;4974561;28;20454;-87
2022/08/05 02:28:48;;;;;;;4.63;3.17;;;23.20;97.00;;;;;;4971024;28;20445;-88
2022/08/05 02:31:21;;;;;;;5.17;3.30;;;23.10;97.40;;;;;;4975012;28;20455;-87
2022/08/05 02:33:51;;;;;;;4.23;3.17;;;22.90;98.20;;;;;;4974987;28;20454;-86
2022/08/05 02:36:22;;;;;;;5.97;3.53;;;22.90;98.70;;;;;;4974819;28;20493;-89
2022/08/05 02:38:50;;;;;;;6.33;3.40;;;22.80;98.50;;;;;;4972500;28;20855;-91
2022/08/05 02:41:19;;;;;;;3.60;3.13;;;22.70;99.50;;;;;;4972885;28;20949;-88
2022/08/05 02:43:48;;;;;;;6.80;3.30;;;22.60;99.90;;;;;;4957021;28;20973;-88
2022/08/05 02:46:20;;;;;;;3.37;3.07;;;22.50;99.90;;;;;;4975248;28;20462;-86
2022/08/05 02:48:47;;;;;;;9.20;3.97;;;22.50;99.90;;;;;;4974973;28;20461;-90
2022/08/05 02:51:17;;;;;;;18.43;3.83;;;22.50;99.90;;;;;;4974829;28;20449;-87
2022/08/05 02:53:45;;;;;;;3.37;2.87;;;22.50;99.90;;;;;;4973909;28;20812;-88
2022/08/05 02:56:13;;;;;;;5.77;3.40;;;;;;;;;;4974638;28;20540;-87
2022/08/05 02:58:41;;;;;;;5.50;3.80;;;;;;;;;;4974840;28;20454;-87
2022/08/05 03:01:13;;;;;;;7.13;3.40;;;22.60;99.90;;;;;;4974827;28;20527;-87
2022/08/05 03:03:43;;;;;;;10.80;3.27;;;22.40;99.90;;;;;;4974737;28;20458;-88
2022/08/05 03:06:11;;;;;;;6.03;3.53;;;22.40;99.90;;;;;;4974496;28;20466;-90
2022/08/05 03:08:40;;;;;;;6.10;4.03;;;22.30;99.90;;;;;;4974342;28;20473;-86
2022/08/05 03:11:17;;;;;;;3.77;3.37;;;22.40;99.90;;;;;;4974048;28;20532;-87
2022/08/05 03:13:44;;;;;;;7.90;3.53;;;;;;;;;;4974925;28;20453;-90
2022/08/05 03:16:11;;;;;;;3.37;3.07;;;;;;;;;;4975003;28;20486;-90
2022/08/05 03:18:38;;;;;;;3.77;3.20;;;;;;;;;;4974666;28;20465;-86
2022/08/05 03:21:08;;;;;;;3.63;3.10;;;22.10;99.90;;;;;;4974572;28;20461;-87
2022/08/05 03:23:36;;;;;;;6.37;4.00;;;21.90;99.90;;;;;;4974331;28;20461;-86
2022/08/05 03:26:03;;;;;;;8.47;3.70;;;;;;;;;;4972658;28;20462;-87
2022/08/05 03:28:31;;;;;;;5.20;3.80;;;;;;;;;;4976844;28;20449;-86
2022/08/05 03:30:58;;;;;;;4.47;3.37;;;;;;;;;;4977945;28;20950;-87
2022/08/05 03:33:26;;;;;;;3.43;3.13;;;21.70;99.90;;;;;;4978393;28;20526;-86
2022/08/05 03:35:54;;;;;;;9.57;3.93;;;;;;;;;;4978174;28;20450;-87
2022/08/05 03:38:23;;;;;;;5.27;4.10;;;21.50;99.90;;;;;;4978752;28;20447;-86
2022/08/05 03:40:52;;;;;;;4.87;3.97;;;;;;;;;;4977024;28;20438;-89
2022/08/05 03:43:19;;;;;;;3.77;3.47;;;;;;;;;;4978377;28;20930;-91
2022/08/05 03:45:46;;;;;;;4.30;3.90;;;;;;;;;;4978358;28;20458;-92
2022/08/05 03:48:13;;;;;;;4.13;3.63;;;;;;;;;;4978617;28;20453;-90
2022/08/05 03:50:47;;;;;;;6.40;3.93;;;21.20;99.90;;;;;;4978703;28;20446;-87
2022/08/05 03:53:21;;;;;;;5.90;3.77;;;21.10;99.90;;;;;;4978286;28;20442;-91
2022/08/05 03:55:56;;;;;;;5.40;4.30;;;21.10;99.90;;;;;;4976871;28;20477;-89
2022/08/05 03:58:26;;;;;;;7.57;3.53;;;21.10;99.90;;;;;;4976640;28;21061;-87
2022/08/05 04:00:55;;;;;;;5.20;3.57;;;21.00;99.90;;;;;;4985080;28;20441;-89
2022/08/05 04:03:24;;;;;;;6.13;3.93;;;20.90;99.90;;;;;;5002746;28;20449;-89
2022/08/05 04:05:51;;;;;;;5.80;3.73;;;;;;;;;;4987393;28;20470;-87
2022/08/05 04:08:18;;;;;;;8.23;4.10;;;;;;;;;;4978674;28;20433;-90
2022/08/05 04:10:46;;;;;;;5.13;3.60;;;20.70;99.90;;;;;;4977127;28;20832;-92
2022/08/05 04:13:17;;;;;;;7.80;4.30;;;20.70;99.90;;;;;;4977436;28;20453;-92
2022/08/05 04:15:44;;;;;;;6.83;4.00;;;;;;;;;;4977399;28;20501;-86
2022/08/05 04:18:11;;;;;;;10.07;3.77;;;;;;;;;;4978016;28;20496;-89
2022/08/05 04:20:38;;;;;;;5.33;3.90;;;;;;;;;;4978004;28;20453;-91
2022/08/05 04:23:05;;;;;;;5.07;3.97;;;;;;;;;;4977701;28;20449;-93
2022/08/05 04:25:32;;;;;;;10.60;4.10;;;;;;;;;;4976332;28;20466;-86
2022/08/05 04:27:59;;;;;;;5.73;4.00;;;;;;;;;;4977110;28;20858;-89
2022/08/05 04:30:28;;;;;;;4.27;3.40;;;21.20;99.90;;;;;;4977759;28;20446;-91
2022/08/05 04:32:55;;;;;;;3.93;3.53;;;;;;;;;;4977499;28;20449;-86
2022/08/05 04:35:22;;;;;;;9.90;3.70;;;;;;;;;;4977263;28;20552;-86
2022/08/05 04:37:49;;;;;;;4.73;3.67;;;;;;;;;;4977105;28;20489;-91
2022/08/05 04:40:16;;;;;;;7.00;4.63;;;;;;;;;;4975311;28;20450;-88
2022/08/05 04:42:43;;;;;;;7.43;4.07;;;;;;;;;;4977854;28;20454;-87
2022/08/05 04:45:11;;;;;;;7.93;3.90;;;;;;;;;;4982523;28;20453;-94
2022/08/05 04:47:39;;;;;;;4.73;4.10;;;21.30;99.90;;;;;;4981528;28;20472;-92
2022/08/05 04:50:07;;;;;;;7.53;4.10;;;;;;;;;;4984744;28;20445;-89
2022/08/05 04:52:34;;;;;;;4.27;3.70;;;;;;;;;;4980125;28;20450;-93
2022/08/05 04:55:01;;;;;;;4.67;4.07;;;;;;;;;;4979785;28;20450;-92
2022/08/05 04:57:28;;;;;;;6.43;4.33;;;;;;;;;;4981138;28;20478;-92
2022/08/05 04:59:55;;;;;;;10.03;3.90;;;;;;;;;;4978753;28;20450;-92
2022/08/05 05:02:22;;;;;;;7.83;4.03;;;;;;;;;;4985109;28;20458;-87
2022/08/05 05:04:51;;;;;;;7.03;4.50;;;21.50;99.90;;;;;;4983497;28;20450;-92
2022/08/05 05:07:18;;;;;;;8.33;4.50;;;;;;;;;;4983061;28;20450;-92
2022/08/05 05:09:45;;;;;;;4.83;3.80;;;;;;;;;;4984859;28;20450;-93
2022/08/05 05:12:12;;;;;;;6.60;4.17;;;;;;;;;;4983671;28;20485;-94
2022/08/05 05:14:39;;;;;;;6.33;4.07;;;;;;;;;;4981997;28;20458;-91
2022/08/05 05:17:06;;;;;;;8.77;3.90;;;;;;;;;;4981876;28;20490;-93
2022/08/05 05:19:34;;;;;;;6.33;4.73;;;;;;;;;;4981750;28;20961;-94
2022/08/05 05:22:02;;;;;;;5.40;4.10;;;22.30;99.90;;;;;;4985680;28;20802;-93
2022/08/05 05:24:29;;;;;;;7.90;4.30;;;;;;;;;;4977882;28;20445;-90
2022/08/05 05:26:58;;;;;;;7.50;3.93;;;;;;;;;;4976972;28;20934;-92
2022/08/05 05:29:25;;;;;;;8.47;4.27;;;;;;;;;;4980527;28;20945;-94
2022/08/05 05:31:53;;;;;;;8.23;4.93;;;;;;;;;;4979830;28;20438;-93
2022/08/05 05:34:20;;;;;;;6.50;4.13;;;;;;;;;;4982418;28;20443;-89
2022/08/05 05:36:48;;;;;;;8.33;4.63;;;;;;;;;;4977362;28;20493;-90
2022/08/05 05:39:16;;;;;;;6.10;4.37;;;23.40;99.90;;;;;;4977517;28;20451;-92
2022/08/05 05:41:43;;;;;;;6.03;3.93;;;;;;;;;;4980839;28;20450;-90
2022/08/05 05:44:10;;;;;;;7.00;4.70;;;;;;;;;;4975987;28;20454;-91
2022/08/05 05:46:37;;;;;;;5.07;4.50;;;;;;;;;;4979960;28;20461;-86
2022/08/05 05:49:04;;;;;;;6.73;5.30;;;;;;;;;;4980264;28;20472;-88
2022/08/05 05:51:32;;;;;;;8.83;4.50;;;;;;;;;;4982619;28;20447;-92
2022/08/05 05:53:59;;;;;;;4.90;4.37;;;;;;;;;;4975184;28;20500;-94
2022/08/05 05:56:28;;;;;;;5.03;4.60;;;25.00;94.20;;;;;;4976908;28;20461;-91
2022/08/05 05:58:55;;;;;;;4.67;4.27;;;;;;;;;;4976256;28;20454;-93
2022/08/05 06:01:22;;;;;;;5.97;4.43;;;;;;;;;;4976810;28;20454;-93
2022/08/05 06:03:50;;;;;;;7.13;4.60;;;;;;;;;;4976706;28;20517;-94
2022/08/05 06:06:17;;;;;;;4.87;4.47;;;;;;;;;;4977827;28;20490;-90
2022/08/05 06:08:44;;;;;;;7.23;4.53;;;;;;;;;;4975655;28;20469;-92
2022/08/05 06:11:11;;;;;;;5.50;4.40;;;;;;;;;;4975736;28;20973;-92
2022/08/05 06:13:42;;;;;;;5.63;4.50;;;;;;;;;;4976819;28;20526;-89
2022/08/05 06:16:09;;;;;;;5.50;4.50;;;;;;;;;;4976183;28;20480;-92
2022/08/05 06:18:37;;;;;;;9.23;4.83;;;;;;;;;;4976380;28;20490;-92
2022/08/05 06:21:04;;;;;;;5.10;4.60;;;;;;;;;;4976268;28;20450;-92
2022/08/05 06:23:31;;;;;;;4.70;4.20;;;;;;;;;;4976481;28;20450;-91
2022/08/05 06:25:59;;;;;;;5.00;4.50;;;;;;;;;;4977076;28;20442;-93
2022/08/05 06:28:26;;;;;;;4.37;3.90;;;;;;;;;;4978749;28;20462;-89
2022/08/05 06:30:54;;;;;;;5.60;4.60;;;27.20;83.30;;;;;;4977381;28;20450;-93
2022/08/05 06:33:21;;;;;;;8.47;4.13;;;;;;;;;;4975224;28;20453;-93
2022/08/05 06:35:48;;;;;;;4.30;3.40;;;;;;;;;;4977850;28;20462;-93
2022/08/05 06:38:15;;;;;;;4.17;3.20;;;;;;;;;;4979526;28;20498;-93
2022/08/05 06:40:42;;;;;;;6.37;3.90;;;27.50;79.00;;;;;;4977613;28;20454;-94
2022/08/05 06:43:09;;;;;;;3.60;3.27;;;;;;;;;;4994090;28;20456;-92
2022/08/05 06:45:36;;;;;;;5.40;3.00;;;;;;;;;;4998263;28;20434;-86
2022/08/05 06:48:05;;;;;;;4.47;3.70;;;28.30;75.30;;;;;;4976202;28;20446;-91
2022/08/05 06:50:32;;;;;;;3.23;2.93;;;;;;;;;;4980259;28;20450;-90
2022/08/05 06:52:59;;;;;;;4.07;3.10;;;;;;;;;;4982342;28;20817;-92
2022/08/05 06:55:26;;;;;;;3.10;2.90;;;;;;;;;;4981189;28;20446;-90
2022/08/05 06:57:53;;;;;;;7.47;3.20;;;;;;;;;;4984348;28;20470;-92
2022/08/05 07:00:21;;;;;;;5.63;3.67;;;;;;;;;;4981136;28;20446;-92
2022/08/05 07:02:48;;;;;;;3.27;2.97;;;;;;;;;;4984177;28;20802;-92
2022/08/05 07:05:16;;;;;;;3.27;2.90;;;;;;;;;;4983466;28;20561;-90
2022/08/05 07:07:47;;;;;;;4.73;3.30;;;;;;;;;;4978804;28;20461;-91
2022/08/05 07:10:14;;;;;;;7.67;2.90;;;;;;;;;;4977744;28;20473;-91
2022/08/05 07:18:10;;;;;;;3.23;2.93;;;;;;;;;;4976989;28;20850;-89
2022/08/05 07:20:39;;;;;;;2.90;2.70;;;;;;;;;;4983683;28;20453;-90
2022/08/05 07:23:06;;;;;;;2.83;2.63;;;;;;;;;;4994933;28;20840;-94
2022/08/05 07:25:33;;;;;;;3.87;2.50;;;;;;;;;;4978110;28;20457;-92
2022/08/05 07:28:00;;;;;;;2.10;2.00;;;;;;;;;;4993761;28;20450;-92
2022/08/05 07:30:27;;;;;;;2.60;2.40;;;;;;;;;;5004001;28;20949;-90
2022/08/05 07:32:54;;;;;;;4.30;2.70;;;;;;;;;;5003357;28;20448;-92
2022/08/05 07:35:22;;;;;;;3.10;2.77;;;;;;;;;;5005961;28;20464;-90
2022/08/05 07:37:50;;;;;;;3.00;2.70;;;28.70;65.20;;;;;;5007187;28;20887;-90
2022/08/05 07:40:17;;;;;;;2.87;2.67;;;;;;;;;;5004145;28;20468;-91
2022/08/05 07:42:45;;;;;;;2.53;1.90;;;;;;;;;;5004488;28;20456;-93
2022/08/05 07:45:12;;;;;;;4.63;2.60;;;;;;;;;;4999073;28;20512;-93
2022/08/05 07:47:39;;;;;;;2.03;1.87;;;;;;;;;;4999345;28;20465;-92
2022/08/05 07:50:06;;;;;;;2.00;1.80;;;;;;;;;;4996412;28;20460;-93
2022/08/05 07:52:38;;;;;;;3.93;2.50;;;28.90;58.70;;;;;;4998726;28;20464;-92
2022/08/05 07:55:09;;;;;;;2.70;2.10;;;29.10;59.30;;;;;;4995766;28;20809;-90
2022/08/05 07:57:37;;;;;;;5.50;2.20;;;;;;;;;;4999194;28;20473;-90
2022/08/05 08:00:05;;;;;;;2.40;2.10;;;29.90;57.70;;;;;;5023317;22;20526;-94
2022/08/05 08:02:33;;;;;;;2.43;1.87;;;;;;;;;;5029808;28;20994;-91
2022/08/05 08:05:00;;;;;;;5.10;2.30;;;;;;;;;;5013776;28;20448;-92
2022/08/05 08:07:27;;;;;;;4.90;2.10;;;;;;;;;;5014443;28;20463;-94
2022/08/05 08:09:54;;;;;;;3.47;1.80;;;;;;;;;;5014507;28;20483;-87
2022/08/05 08:12:23;;;;;;;2.30;2.10;;;29.30;56.10;;;;;;5014579;28;20456;-88
2022/08/05 08:14:50;;;;;;;2.20;2.00;;;;;;;;;;5015255;28;20452;-87
2022/08/05 08:17:17;;;;;;;2.27;1.77;;;;;;;;;;5017170;28;20462;-92
2022/08/05 08:19:45;;;;;;;3.00;2.00;;;29.60;55.30;;;;;;5017521;28;20455;-92
2022/08/05 08:22:12;;;;;;;4.27;2.70;;;29.40;55.80;;;;;;5017346;28;20463;-90
2022/08/05 08:24:40;;;;;;;3.37;2.37;;;;;;;;;;5016002;28;20461;-86
2022/08/05 08:27:07;;;;;;;3.60;1.97;;;30.30;54.30;;;;;;5017077;28;20452;-93
2022/08/05 08:29:35;;;;;;;2.57;2.37;;;;;;;;;;5001228;28;20456;-92
2022/08/05 08:32:02;;;;;;;2.53;2.03;;;;;;;;;;4998196;28;20464;-94
2022/08/05 08:34:30;;;;;;;2.40;2.20;;;;;;;;;;5000204;28;20445;-92
2022/08/05 08:36:57;;;;;;;2.13;2.03;;;;;;;;;;4999292;28;20459;-92
2022/08/05 08:39:24;;;;;;;2.80;2.10;;;;;;;;;;4998706;28;20492;-90
2022/08/05 08:42:06;;;;;;;2.70;2.17;;;30.90;53.20;;;;;;5003606;28;20811;-91
2022/08/05 08:44:33;;;;;;;5.13;2.13;;;;;;;;;;5002438;28;20453;-94
2022/08/05 08:47:03;;;;;;;1.93;1.60;;;31.10;51.50;;;;;;5001592;28;20426;-92
2022/08/05 08:49:36;;;;;;;2.47;2.00;;;31.50;49.10;;;;;;5002416;28;20450;-94
2022/08/05 08:52:11;;;;;;;2.77;2.13;;;31.60;50.10;;;;;;4962879;29;20451;-93
2022/08/05 08:54:38;;;;;;;2.63;2.17;;;;;;;;;;4957734;29;20454;-94
2022/08/05 08:57:06;;;;;;;2.40;2.20;;;32.40;47.30;;;;;;4963436;29;20456;-93
2022/08/05 08:59:36;;;;;;;2.83;2.00;;;;;;;;;;4955587;28;20916;-94
2022/08/05 09:02:09;;;;;;;2.80;1.93;;;;;;;;;;4960078;29;20466;-93
2022/08/05 09:04:38;;;;;;;10.60;4.50;;;;;;;;;;5065413;23;20454;-94
2022/08/05 09:07:10;;;;;;;1.87;1.77;;;;;;;;;;5024035;28;20465;-95
2022/08/05 09:09:38;;;;;;;2.40;2.20;;;32.70;45.20;;;;;;5020594;28;20537;-92
2022/08/05 09:12:09;;;;;;;2.50;2.07;;;32.00;45.80;;;;;;5022828;28;20779;-94
2022/08/05 09:14:39;;;;;;;2.40;2.20;;;;;;;;;;5023435;28;20444;-94
2022/08/05 09:17:13;;;;;;;2.37;2.17;;;;;;;;;;5023295;28;20468;-94
2022/08/05 09:19:41;;;;;;;1.97;1.80;;;;;;;;;;5021761;28;20456;-95
2022/08/05 09:22:08;;;;;;;1.90;1.80;;;;;;;;;;5019742;28;20456;-90
2022/08/05 09:27:31;;;;;;;3.03;2.17;;;32.40;46.60;;;;;;5027322;28;20447;-93
2022/08/05 09:29:59;;;;;;;2.73;1.70;;;;;;;;;;5021237;28;20456;-94
2022/08/05 09:32:36;;;;;;;2.60;2.10;;;;;;;;;;5035407;28;20482;-89
2022/08/05 09:35:13;;;;;;;2.13;1.50;;;32.60;44.00;;;;;;5039223;28;20440;-92
2022/08/05 09:37:50;;;;;;;1.83;1.73;;;32.60;42.90;;;;;;5019643;28;20815;-91
2022/08/05 09:40:30;;;;;;;2.10;1.90;;;32.80;41.80;;;;;;5019991;28;20947;-91
2022/08/05 09:42:58;;;;;;;3.07;2.20;;;33.30;42.40;;;;;;5017189;28;20498;-90
2022/08/05 09:45:36;;;;;;;2.00;1.80;;;34.00;41.50;;;;;;5019879;28;20816;-91
2022/08/05 09:50:59;;;;;;;2.57;2.37;;;33.80;40.40;;;;;;5131805;27;20516;-91
2022/08/05 09:53:27;;;;;;;2.30;2.10;;;;;;;;;;5134593;27;20446;-94
2022/08/05 09:55:54;;;;;;;2.90;2.00;;;;;;;;;;5134035;28;20802;-92
2022/08/05 09:58:22;;;;;;;2.50;2.30;;;;;;;;;;5131982;27;20462;-90
2022/08/05 10:00:54;;;;;;;2.30;1.90;;;33.10;39.80;;;;;;5132671;27;20454;-92
2022/08/05 10:03:21;;;;;;;2.17;1.70;;;;;;;;;;5132955;27;20465;-91
2022/08/05 10:06:03;;;;;;;2.20;2.00;;;31.60;52.20;;;;;;5134038;27;20451;-93
2022/08/05 10:08:30;;;;;;;2.20;1.53;;;;;;;;;;5133975;28;20438;-93
2022/08/05 10:10:57;;;;;;;1.80;1.70;;;;;;;;;;5132264;28;20470;-92
2022/08/05 10:13:29;;;;;;;5.90;3.10;;;33.40;49.20;;;;;;5134928;27;20447;-92
2022/08/05 10:15:57;;;;;;;2.43;2.23;;;;;;;;;;5133208;27;20447;-91
2022/08/05 10:18:26;;;;;;;2.17;2.07;;;;;;;;;;5136370;27;20439;-93
2022/08/05 10:20:55;;;;;;;2.53;2.33;;;;;;;;;;5089590;28;20451;-90
2022/08/05 10:23:26;;;;;;;2.13;1.93;;;32.90;45.50;;;;;;5089455;28;20453;-92
2022/08/05 10:25:54;;;;;;;2.07;1.90;;;34.00;42.90;;;;;;5088469;28;20459;-91
2022/08/05 10:28:21;;;;;;;2.80;2.03;;;;;;;;;;5088028;28;20463;-93
2022/08/05 10:30:49;;;;;;;2.47;2.00;;;;;;;;;;5088117;28;20488;-93
2022/08/05 10:33:16;;;;;;;1.87;1.70;;;;;;;;;;5089445;28;20460;-91
2022/08/05 10:35:43;;;;;;;2.60;1.90;;;;;;;;;;5088462;28;20440;-91
2022/08/05 10:38:10;;;;;;;2.23;1.93;;;;;;;;;;5094045;28;20451;-85
2022/08/05 10:40:44;;;;;;;3.23;1.83;;;34.80;38.10;;;;;;5129203;27;20451;-88
2022/08/05 10:43:21;;;;;;;7.20;2.20;;;35.20;38.30;;;;;;5130573;27;20449;-87
2022/08/05 10:45:57;;;;;;;3.90;2.27;;;35.40;36.50;;;;;;5130406;27;20446;-87
2022/08/05 10:48:31;;;;;;;2.83;1.90;;;33.50;33.50;;;;;;5130546;27;20455;-89
2022/08/05 10:51:00;;;;;;;2.10;1.93;;;33.20;38.30;;;;;;5130236;27;20996;-89
2022/08/05 10:53:35;;;;;;;2.40;2.20;;;;;;;;;;5132331;28;20442;-91
2022/08/05 10:56:06;;;;;;;2.50;2.10;;;34.00;43.70;;;;;;5129364;27;20449;-89
2022/08/05 10:58:33;;;;;;;2.93;2.47;;;;;;;;;;5131035;27;20453;-89
2022/08/05 11:01:00;;;;;;;3.30;2.23;;;;;;;;;;5124241;27;20440;-87
2022/08/05 11:03:28;;;;;;;2.57;2.37;;;;;;;;;;5117765;28;20443;-93
2022/08/05 11:06:05;;;;;;;2.53;2.00;;;;;;;;;;5116812;28;20447;-87
2022/08/05 11:08:32;;;;;;;2.60;2.30;;;;;;;;;;5116721;28;20443;-89
2022/08/05 11:11:34;;;;;;;2.30;2.20;;;34.10;46.40;;;;;;5115376;28;20491;-89
2022/08/05 11:14:02;;;;;;;2.73;2.53;;;;;;;;;;5116243;28;20968;-88
2022/08/05 11:16:29;;;;;;;174.10;126.97;;;;;;;;;;5116888;28;20540;-88
2022/08/05 11:19:25;;;;;;;236.60;141.20;;;35.20;55.10;;;;;;5116344;28;20806;-88
2022/08/05 11:21:52;;;;;;;11.37;10.70;;;;;;;;;;5116510;28;20444;-84
2022/08/05 11:24:20;;;;;;;4.13;3.83;;;;;;;;;;5115117;28;20468;-93
2022/08/05 11:26:48;;;;;;;7.17;6.10;;;32.80;51.40;;;;;;5116967;28;20826;-88
2022/08/05 11:29:35;;;;;;;5.77;5.27;;;33.00;45.90;;;;;;5116132;28;20439;-86
2022/08/05 11:32:23;;;;;;;4.23;2.87;;;33.10;50.70;;;;;;5116008;28;20451;-90
2022/08/05 11:34:50;;;;;;;4.07;2.93;;;;;;;;;;5116058;27;20448;-86
2022/08/05 11:38:05;;;;;;;3.20;2.87;;;31.30;51.10;;;;;;5117771;28;20439;-84
2022/08/05 11:40:57;;;;;;;2.63;2.43;;;31.10;40.80;;;;;;5114488;28;20436;-84
2022/08/05 11:43:26;;;;;;;2.83;2.63;;;30.70;47.50;;;;;;5115715;28;20455;-88
2022/08/05 11:45:53;;;;;;;3.70;2.70;;;31.50;48.00;;;;;;5115991;28;20452;-84
2022/08/05 11:48:20;;;;;;;3.93;3.53;;;;;;;;;;5116200;28;20455;-84
2022/08/05 11:50:48;;;;;;;4.90;2.73;;;;;;;;;;5114825;28;20507;-84
2022/08/05 11:53:15;;;;;;;4.43;2.40;;;;;;;;;;5115766;28;20480;-84
2022/08/05 11:55:55;;;;;;;2.67;2.47;;;32.60;51.50;;;;;;5114645;28;20444;-87
2022/08/05 11:58:29;;;;;;;2.97;2.77;;;32.50;45.10;;;;;;5115490;28;20443;-85
2022/08/05 12:01:03;;;;;;;2.50;2.30;;;;;;;;;;5115830;28;20505;-89
2022/08/05 12:03:30;;;;;;;2.30;2.10;;;;;;;;;;5115551;28;20501;-86
2022/08/05 12:06:02;;;;;;;3.17;2.60;;;32.50;51.20;;;;;;5115471;28;20942;-84
2022/08/05 12:08:29;;;;;;;3.40;2.67;;;;;;;;;;5115506;28;20934;-87
2022/08/05 12:10:59;;;;;;;4.33;2.57;;;32.30;52.70;;;;;;5114363;28;20487;-83
2022/08/05 12:13:27;;;;;;;2.87;2.67;;;;;;;;;;5114461;28;20465;-90
2022/08/05 12:15:55;;;;;;;2.77;2.57;;;;;;;;;;5140206;28;20448;-86
2022/08/05 12:18:32;;;;;;;2.17;1.97;;;33.30;49.00;;;;;;5132332;28;20960;-87
2022/08/05 12:21:10;;;;;;;2.10;1.90;;;33.30;48.90;;;;;;5116296;28;20815;-94
2022/08/05 12:23:37;;;;;;;2.90;2.70;;;;;;;;;;5116250;28;20459;-85
2022/08/05 12:26:04;;;;;;;4.33;2.80;;;;;;;;;;5114452;28;20455;-89
2022/08/05 12:28:33;;;;;;;6.60;2.80;;;;;;;;;;5116123;28;20447;-86
2022/08/05 12:31:00;;;;;;;3.50;2.63;;;;;;;;;;5078519;28;21021;-83
2022/08/05 12:33:27;;;;;;;2.97;2.50;;;;;;;;;;5114569;28;20455;-83
2022/08/05 12:35:54;;;;;;;2.93;2.60;;;;;;;;;;5114969;28;20522;-85
2022/08/05 12:38:23;;;;;;;3.20;2.27;;;33.50;51.80;;;;;;5115190;28;20527;-83
2022/08/05 12:40:50;;;;;;;3.80;2.80;;;;;;;;;;5113452;28;20458;-84
2022/08/05 12:43:17;;;;;;;3.93;2.50;;;;;;;;;;5114724;28;20479;-85
2022/08/05 12:45:54;;;;;;;3.40;3.10;;;32.70;50.10;;;;;;5115274;28;20451;-88
2022/08/05 12:48:21;;;;;;;2.73;2.20;;;;;;;;;;5115280;28;20453;-87
2022/08/05 12:51:10;;;;;;;6.80;3.87;;;32.80;44.80;;;;;;5114301;28;20496;-86
2022/08/05 12:53:41;;;;;;;3.00;2.70;;;;;;;;;;5115459;28;20501;-91
2022/08/05 12:56:26;;;;;;;3.17;2.80;;;31.30;44.50;;;;;;5115312;28;20447;-87
2022/08/05 12:59:12;;;;;;;3.17;2.87;;;;;;;;;;5114862;28;20451;-86
2022/08/05 13:01:41;;;;;;;3.43;3.13;;;31.90;54.80;;;;;;5116597;28;20473;-87
2022/08/05 13:04:08;;;;;;;6.50;5.90;;;;;;;;;;5115227;28;20821;-91
2022/08/05 13:06:38;;;;;;;6.00;5.40;;;31.80;52.50;;;;;;5114068;28;20922;-86
2022/08/05 13:09:08;;;;;;;33.57;31.13;;;;;;;;;;5112655;28;20439;-87
2022/08/05 13:11:39;;;;;;;140.47;96.03;;;33.30;56.70;;;;;;5114879;28;20522;-87
2022/08/05 13:14:21;;;;;;;24.57;22.67;;;33.10;54.50;;;;;;5114809;28;20469;-88
2022/08/05 13:16:53;;;;;;;5.83;4.80;;;32.70;52.30;;;;;;5110866;28;20834;-88
2022/08/05 13:19:21;;;;;;;4.80;4.23;;;;;;;;;;5113910;28;20455;-88
2022/08/05 13:21:48;;;;;;;3.67;2.47;;;;;;;;;;5114018;28;20455;-86
2022/08/05 13:24:17;;;;;;;2.90;2.60;;;31.60;54.20;;;;;;5112588;28;20455;-87
2022/08/05 13:26:44;;;;;;;3.90;3.60;;;31.60;54.20;;;;;;5113830;28;20450;-89
2022/08/05 13:29:12;;;;;;;2.87;2.67;;;;;;;;;;5114023;28;20499;-91
2022/08/05 13:31:39;;;;;;;3.97;3.57;;;;;;;;;;5113957;28;20479;-86
2022/08/05 13:34:07;;;;;;;5.50;4.70;;;;;;;;;;5113670;28;20816;-87
2022/08/05 13:36:34;;;;;;;4.00;2.90;;;;;;;;;;5113851;28;20443;-86
2022/08/05 13:39:02;;;;;;;11.20;8.60;;;;;;;;;;5112498;28;20451;-86
2022/08/05 13:41:29;;;;;;;3.03;2.83;;;;;;;;;;5113666;28;20436;-86
2022/08/05 13:43:56;;;;;;;4.80;4.40;;;;;;;;;;5113845;28;20458;-86
2022/08/05 13:46:23;;;;;;;3.87;3.23;;;;;;;;;;5113732;28;20444;-84
2022/08/05 13:48:50;;;;;;;3.40;3.00;;;;;;;;;;5113171;28;20483;-85
2022/08/05 13:51:27;;;;;;;3.80;3.50;;;31.90;55.30;;;;;;5113575;28;20491;-85
2022/08/05 13:53:54;;;;;;;5.53;4.77;;;;;;;;;;5112370;28;20474;-86
2022/08/05 13:56:21;;;;;;;4.23;3.80;;;;;;;;;;5113723;28;20451;-87
2022/08/05 13:58:48;;;;;;;3.93;3.60;;;;;;;;;;5114169;28;20787;-86
2022/08/05 14:01:15;;;;;;;9.00;7.20;;;;;;;;;;5114324;28;20935;-86
2022/08/05 14:03:42;;;;;;;5.10;4.77;;;;;;;;;;5115315;28;20448;-85
2022/08/05 14:06:08;;;;;;;3.53;3.23;;;;;;;;;;5114155;28;20444;-86
2022/08/05 14:08:37;;;;;;;3.07;2.87;;;;;;;;;;5111481;28;20436;-86
2022/08/05 14:11:04;;;;;;;3.90;2.43;;;;;;;;;;5112959;28;20491;-86
2022/08/05 14:13:31;;;;;;;6.47;3.67;;;;;;;;;;5113463;28;20444;-88
2022/08/05 14:15:58;;;;;;;3.23;2.43;;;;;;;;;;5113406;28;20444;-82